createdAt,value
2022-10-06T00:00:49.877Z,9.95
2022-10-06T00:03:16.883Z,9.92
2022-10-06T00:05:43.806Z,9.92
2022-10-06T00:08:11.126Z,10.06
2022-10-06T00:10:37.913Z,9.99
2022-10-06T00:13:04.516Z,9.99
2022-10-06T00:15:32.756Z,9.95
2022-10-06T00:17:59.871Z,9.84
2022-10-06T00:20:27.114Z,9.68
2022-10-06T00:25:23.690Z,9.92
2022-10-06T00:27:52.364Z,9.87
2022-10-06T00:30:22.717Z,9.92
2022-10-06T00:32:54.756Z,9.93
2022-10-06T00:35:21.683Z,9.95
2022-10-06T00:37:48.839Z,9.75
2022-10-06T00:40:16.099Z,9.82
2022-10-06T00:43:01.363Z,9.80
2022-10-06T00:45:37.766Z,9.87
2022-10-06T00:48:08.762Z,9.74
2022-10-06T00:50:36.385Z,9.71
2022-10-06T00:53:05.111Z,9.84
2022-10-06T00:55:32.097Z,9.70
2022-10-06T00:58:00.050Z,9.89
2022-10-06T01:00:27.199Z,9.96
2022-10-06T01:03:21.833Z,9.62
2022-10-06T01:05:51.221Z,9.57
2022-10-06T01:08:18.776Z,9.64
2022-10-06T01:10:45.359Z,9.78
2022-10-06T01:13:13.684Z,9.94
2022-10-06T01:15:50.321Z,9.63
2022-10-06T01:18:20.479Z,9.50
2022-10-06T01:20:53.475Z,9.34
2022-10-06T01:23:21.135Z,9.34
2022-10-06T01:25:48.215Z,9.47
2022-10-06T01:28:15.038Z,9.36
2022-10-06T01:30:47.173Z,9.38
2022-10-06T01:33:13.778Z,9.48
2022-10-06T01:35:40.342Z,9.45
2022-10-06T01:38:06.907Z,9.31
2022-10-06T01:40:33.472Z,9.40
2022-10-06T01:43:00.042Z,9.46
2022-10-06T01:45:26.660Z,9.16
2022-10-06T01:47:53.275Z,9.32
2022-10-06T01:50:19.847Z,9.49
2022-10-06T01:52:46.431Z,9.55
2022-10-06T01:55:13.084Z,9.33
2022-10-06T01:57:41.001Z,9.11
2022-10-06T02:00:08.712Z,8.99
2022-10-06T02:02:35.314Z,9.23
2022-10-06T02:05:02.467Z,9.39
2022-10-06T02:07:29.037Z,9.52
2022-10-06T02:09:55.752Z,9.51
2022-10-06T02:12:22.564Z,9.33
2022-10-06T02:14:49.193Z,9.07
2022-10-06T02:17:15.794Z,8.89
2022-10-06T02:19:42.464Z,8.84
2022-10-06T02:22:09.011Z,8.79
2022-10-06T02:24:35.612Z,8.80
2022-10-06T02:27:02.167Z,8.81
2022-10-06T02:29:28.746Z,8.75
2022-10-06T02:31:55.441Z,8.83
2022-10-06T02:34:22.020Z,8.94
2022-10-06T02:36:48.595Z,8.68
2022-10-06T02:39:15.198Z,9.02
2022-10-06T02:41:41.790Z,8.91
2022-10-06T02:44:08.458Z,8.83
2022-10-06T02:46:35.078Z,8.72
2022-10-06T02:49:01.705Z,8.57
2022-10-06T02:51:28.291Z,8.63
2022-10-06T02:53:54.870Z,8.75
2022-10-06T02:56:24.118Z,8.85
2022-10-06T02:58:52.044Z,8.98
2022-10-06T03:01:24.581Z,8.84
2022-10-06T03:03:51.265Z,8.75
2022-10-06T03:06:23.511Z,8.88
2022-10-06T03:08:59.356Z,8.97
2022-10-06T03:11:34.722Z,8.88
2022-10-06T03:14:01.786Z,8.66
2022-10-06T03:16:29.466Z,8.62
2022-10-06T03:18:56.623Z,8.58
2022-10-06T03:21:26.235Z,8.54
2022-10-06T03:23:53.958Z,8.55
2022-10-06T03:26:22.982Z,8.50
2022-10-06T03:28:49.632Z,8.54
2022-10-06T03:31:16.469Z,8.47
2022-10-06T03:33:43.154Z,8.34
2022-10-06T03:36:15.872Z,8.33
2022-10-06T03:38:43.273Z,8.30
2022-10-06T03:41:09.810Z,8.30
2022-10-06T03:43:37.626Z,8.33
2022-10-06T03:46:05.972Z,8.39
2022-10-06T03:48:36.006Z,8.36
2022-10-06T03:51:05.865Z,8.37
2022-10-06T03:53:34.168Z,8.41
2022-10-06T03:56:10.383Z,8.59
2022-10-06T03:58:40.161Z,8.55
2022-10-06T04:01:16.299Z,8.39
2022-10-06T04:03:43.234Z,8.24
2022-10-06T04:06:16.075Z,8.23
2022-10-06T04:08:43.787Z,8.26
2022-10-06T04:11:16.040Z,8.35
2022-10-06T04:13:43.950Z,8.36
2022-10-06T04:16:20.187Z,8.18
2022-10-06T04:18:50.103Z,8.02
2022-10-06T04:21:16.696Z,8.10
2022-10-06T04:23:43.324Z,8.26
2022-10-06T04:26:18.578Z,7.99
2022-10-06T04:28:46.084Z,7.94
2022-10-06T04:31:23.311Z,8.09
2022-10-06T04:33:55.572Z,8.08
2022-10-06T04:36:27.932Z,8.08
2022-10-06T04:39:02.149Z,8.14
2022-10-06T04:41:31.443Z,8.29
2022-10-06T04:43:58.723Z,8.08
2022-10-06T04:46:43.670Z,8.11
2022-10-06T04:49:16.251Z,8.03
2022-10-06T04:51:46.854Z,8.04
2022-10-06T04:54:13.559Z,8.07
2022-10-06T04:56:40.138Z,7.99
2022-10-06T04:59:06.711Z,7.94
2022-10-06T05:01:35.933Z,7.99
2022-10-06T05:04:04.469Z,8.05
2022-10-06T05:06:36.382Z,8.05
2022-10-06T05:09:14.202Z,8.21
2022-10-06T05:11:40.839Z,8.15
2022-10-06T05:14:07.453Z,8.23
2022-10-06T05:16:34.165Z,8.11
2022-10-06T05:19:00.898Z,8.12
2022-10-06T05:21:30.222Z,8.10
2022-10-06T05:23:57.195Z,8.26
2022-10-06T05:26:27.553Z,8.16
2022-10-06T05:28:54.376Z,8.00
2022-10-06T05:31:26.939Z,8.03
2022-10-06T05:33:54.417Z,8.07
2022-10-06T05:36:24.040Z,8.09
2022-10-06T05:38:50.848Z,8.39
2022-10-06T05:41:20.136Z,8.36
2022-10-06T05:43:47.951Z,8.21
2022-10-06T05:46:20.147Z,8.08
2022-10-06T05:48:48.038Z,8.03
2022-10-06T05:51:14.734Z,8.04
2022-10-06T05:53:41.687Z,8.23
2022-10-06T05:56:10.363Z,8.24
2022-10-06T05:58:39.257Z,8.37
2022-10-06T06:01:14.242Z,8.24
2022-10-06T06:03:43.230Z,8.29
2022-10-06T06:06:30.666Z,8.18
2022-10-06T06:09:00.234Z,8.18
2022-10-06T06:11:28.824Z,8.36
2022-10-06T06:14:04.264Z,8.25
2022-10-06T06:16:31.662Z,8.47
2022-10-06T06:18:59.291Z,8.34
2022-10-06T06:21:26.354Z,8.36
2022-10-06T06:23:53.745Z,8.36
2022-10-06T06:26:21.723Z,8.61
2022-10-06T06:28:48.388Z,8.52
2022-10-06T06:31:20.339Z,8.63
2022-10-06T06:33:49.009Z,8.55
2022-10-06T06:36:20.013Z,8.69
2022-10-06T06:38:48.338Z,8.75
2022-10-06T06:41:20.330Z,8.66
2022-10-06T06:43:47.895Z,8.86
2022-10-06T06:46:16.691Z,8.79
2022-10-06T06:48:44.225Z,8.75
2022-10-06T06:51:11.507Z,8.60
2022-10-06T06:53:39.251Z,8.53
2022-10-06T06:56:07.243Z,8.66
2022-10-06T06:58:37.611Z,8.82
2022-10-06T07:01:09.430Z,8.70
2022-10-06T07:03:56.610Z,8.84
2022-10-06T07:06:27.782Z,8.89
2022-10-06T07:08:55.604Z,8.71
2022-10-06T07:11:24.624Z,8.81
2022-10-06T07:13:53.340Z,8.85
2022-10-06T07:16:22.084Z,8.91
2022-10-06T07:18:48.800Z,9.00
2022-10-06T07:21:15.379Z,9.18
2022-10-06T07:23:42.116Z,9.30
2022-10-06T07:26:08.768Z,9.23
2022-10-06T07:28:35.385Z,9.37
2022-10-06T07:31:02.179Z,9.15
2022-10-06T07:33:28.815Z,9.11
2022-10-06T07:35:55.382Z,9.36
2022-10-06T07:38:21.989Z,9.39
2022-10-06T07:41:18.277Z,9.27
2022-10-06T07:43:40.734Z,9.28
2022-10-06T07:46:14.240Z,9.36
2022-10-06T07:48:40.875Z,9.51
2022-10-06T07:51:16.651Z,9.82
2022-10-06T07:53:43.331Z,9.66
2022-10-06T07:56:09.917Z,9.80
2022-10-06T07:58:36.606Z,9.86
2022-10-06T08:01:08.802Z,10.19
2022-10-06T08:03:37.954Z,10.14
2022-10-06T08:06:04.662Z,11.14
2022-10-06T08:08:32.972Z,11.15
2022-10-06T08:11:01.478Z,10.90
2022-10-06T08:13:29.163Z,10.80
2022-10-06T08:15:55.768Z,11.24
2022-10-06T08:18:44.587Z,11.61
2022-10-06T08:21:22.035Z,11.63
2022-10-06T08:23:50.351Z,11.20
2022-10-06T08:26:19.394Z,11.38
2022-10-06T08:28:48.665Z,11.62
2022-10-06T08:31:17.418Z,11.47
2022-10-06T08:33:45.475Z,11.36
2022-10-06T08:36:15.127Z,11.37
2022-10-06T08:38:42.086Z,11.39
2022-10-06T08:41:27.710Z,11.64
2022-10-06T08:44:03.288Z,12.39
2022-10-06T08:46:39.801Z,12.90
2022-10-06T08:49:15.907Z,12.99
2022-10-06T08:51:57.674Z,13.28
2022-10-06T08:54:35.644Z,13.22
2022-10-06T08:57:30.325Z,13.32
2022-10-06T08:59:59.106Z,13.15
2022-10-06T09:02:32.419Z,13.30
2022-10-06T09:05:03.057Z,13.55
2022-10-06T09:07:41.131Z,13.67
2022-10-06T09:10:38.548Z,13.42
2022-10-06T09:13:21.939Z,13.80
2022-10-06T09:16:09.013Z,14.28
2022-10-06T09:19:09.466Z,14.17
2022-10-06T09:21:50.565Z,13.94
2022-10-06T09:24:30.347Z,14.14
2022-10-06T09:26:57.762Z,14.23
2022-10-06T09:29:25.058Z,14.31
2022-10-06T09:31:51.688Z,14.52
2022-10-06T09:34:44.453Z,14.76
2022-10-06T09:37:12.552Z,15.18
2022-10-06T09:39:47.531Z,15.19
2022-10-06T09:42:23.977Z,15.11
2022-10-06T09:44:50.523Z,15.09
2022-10-06T09:47:29.184Z,15.38
2022-10-06T09:50:10.925Z,15.19
2022-10-06T09:53:03.912Z,15.41
2022-10-06T09:55:43.650Z,15.16
2022-10-06T09:58:23.684Z,15.69
2022-10-06T10:00:59.280Z,15.34
2022-10-06T10:03:44.572Z,15.40
2022-10-06T10:06:30.391Z,15.83
2022-10-06T10:09:20.678Z,16.05
2022-10-06T10:12:09.419Z,16.21
2022-10-06T10:14:37.983Z,16.14
2022-10-06T10:17:16.289Z,15.79
2022-10-06T10:19:43.402Z,16.08
2022-10-06T10:22:27.547Z,16.14
2022-10-06T10:25:15.788Z,15.66
2022-10-06T10:28:06.960Z,15.92
2022-10-06T10:30:44.688Z,16.28
2022-10-06T10:33:25.369Z,16.41
2022-10-06T10:35:55.312Z,16.30
2022-10-06T10:38:24.573Z,16.17
2022-10-06T10:41:09.002Z,16.08
2022-10-06T10:43:47.529Z,16.07
2022-10-06T10:46:36.327Z,16.65
2022-10-06T10:49:13.827Z,16.92
2022-10-06T10:51:53.874Z,16.98
2022-10-06T10:54:41.114Z,16.64
2022-10-06T10:57:16.228Z,16.77
2022-10-06T10:59:58.830Z,16.88
2022-10-06T11:02:27.111Z,16.84
2022-10-06T11:05:07.051Z,16.65
2022-10-06T11:07:42.704Z,16.76
2022-10-06T11:10:13.365Z,17.20
2022-10-06T11:13:17.303Z,17.12
2022-10-06T11:16:05.265Z,17.21
2022-10-06T11:19:02.836Z,17.20
2022-10-06T11:21:42.470Z,17.47
2022-10-06T11:24:16.767Z,17.49
2022-10-06T11:27:16.928Z,17.53
2022-10-06T11:30:13.082Z,17.90
2022-10-06T11:32:47.545Z,17.55
2022-10-06T11:35:18.625Z,16.90
2022-10-06T11:38:22.248Z,16.99
2022-10-06T11:41:28.841Z,17.60
2022-10-06T11:44:25.838Z,17.48
2022-10-06T11:47:07.243Z,17.71
2022-10-06T11:49:52.688Z,17.94
2022-10-06T11:52:19.238Z,17.28
2022-10-06T11:54:52.754Z,17.10
2022-10-06T11:57:30.365Z,17.10
2022-10-06T12:00:17.627Z,16.92
2022-10-06T12:02:47.465Z,17.06
2022-10-06T12:05:45.902Z,17.18
2022-10-06T12:08:00.646Z,17.28
2022-10-06T12:10:30.037Z,17.62
2022-10-06T12:13:53.266Z,17.75
2022-10-06T12:19:24.803Z,17.19
2022-10-06T12:22:00.412Z,17.26
2022-10-06T12:24:29.950Z,17.48
2022-10-06T12:27:17.485Z,17.50
2022-10-06T12:29:49.034Z,18.22
2022-10-06T12:32:34.023Z,18.26
2022-10-06T12:35:00.892Z,18.22
2022-10-06T12:37:30.799Z,18.21
2022-10-06T12:40:34.973Z,17.79
2022-10-06T12:43:13.804Z,18.13
2022-10-06T12:45:47.777Z,17.85
2022-10-06T12:48:19.948Z,18.08
2022-10-06T12:50:53.034Z,18.08
2022-10-06T12:53:37.098Z,18.04
2022-10-06T12:56:06.184Z,17.82
2022-10-06T12:58:33.872Z,18.44
2022-10-06T13:01:07.444Z,18.12
2022-10-06T13:03:35.119Z,18.18
2022-10-06T13:06:04.642Z,18.61
2022-10-06T13:08:33.792Z,18.74
2022-10-06T13:11:19.878Z,18.87
2022-10-06T13:13:49.552Z,19.02
2022-10-06T13:16:18.560Z,18.72
2022-10-06T13:18:45.282Z,18.84
2022-10-06T13:21:14.203Z,18.67
2022-10-06T13:23:40.936Z,18.76
2022-10-06T13:26:21.639Z,19.18
2022-10-06T13:28:50.824Z,19.24
2022-10-06T13:31:23.205Z,19.01
2022-10-06T13:34:03.111Z,19.46
2022-10-06T13:36:34.277Z,19.38
2022-10-06T13:39:04.171Z,18.90
2022-10-06T13:41:52.414Z,18.95
2022-10-06T13:44:18.999Z,18.53
2022-10-06T13:46:49.312Z,19.13
2022-10-06T13:49:30.101Z,19.08
2022-10-06T13:52:00.821Z,18.99
2022-10-06T13:54:37.894Z,18.79
2022-10-06T13:57:05.039Z,18.85
2022-10-06T13:59:36.350Z,18.93
2022-10-06T14:02:23.963Z,19.29
2022-10-06T14:05:38.635Z,19.39
2022-10-06T14:08:10.890Z,19.27
2022-10-06T14:10:40.587Z,18.93
2022-10-06T14:13:20.114Z,19.27
2022-10-06T14:16:07.922Z,19.30
2022-10-06T14:18:43.164Z,19.29
2022-10-06T14:21:25.017Z,18.93
2022-10-06T14:23:52.940Z,19.24
2022-10-06T14:26:32.970Z,19.70
2022-10-06T14:28:59.587Z,19.47
2022-10-06T14:31:28.242Z,19.23
2022-10-06T14:33:56.207Z,19.37
2022-10-06T14:36:25.557Z,19.23
2022-10-06T14:38:52.154Z,19.13
2022-10-06T14:41:20.179Z,19.24
2022-10-06T14:43:47.690Z,19.12
2022-10-06T14:46:14.338Z,18.85
2022-10-06T14:48:40.975Z,18.73
2022-10-06T14:51:07.569Z,18.91
2022-10-06T14:53:34.244Z,18.99
2022-10-06T14:56:08.467Z,18.70
2022-10-06T14:58:39.067Z,18.16
2022-10-06T15:01:10.153Z,18.44
2022-10-06T15:03:36.837Z,18.62
2022-10-06T15:06:05.966Z,18.63
2022-10-06T15:08:32.523Z,18.63
2022-10-06T15:10:59.084Z,18.46
2022-10-06T15:13:25.668Z,18.21
2022-10-06T15:15:57.864Z,18.41
2022-10-06T15:18:24.511Z,18.42
2022-10-06T15:20:51.073Z,18.26
2022-10-06T15:23:17.649Z,17.99
2022-10-06T15:25:51.923Z,18.08
2022-10-06T15:28:21.319Z,17.96
2022-10-06T15:30:50.346Z,17.60
2022-10-06T15:33:17.003Z,17.75
2022-10-06T15:35:57.163Z,17.82
2022-10-06T15:38:23.747Z,17.60
2022-10-06T15:40:50.370Z,17.42
2022-10-06T15:43:16.929Z,16.92
2022-10-06T15:45:52.943Z,17.30
2022-10-06T15:48:19.504Z,17.31
2022-10-06T15:50:46.071Z,16.90
2022-10-06T15:53:12.722Z,16.75
2022-10-06T15:55:39.333Z,16.81
2022-10-06T15:58:05.918Z,16.71
2022-10-06T16:00:32.556Z,16.71
2022-10-06T16:02:59.157Z,16.84
2022-10-06T16:05:25.767Z,16.67
2022-10-06T16:07:52.347Z,16.54
2022-10-06T16:10:18.923Z,16.56
2022-10-06T16:12:45.534Z,16.58
2022-10-06T16:15:12.167Z,16.72
2022-10-06T16:17:38.822Z,16.42
2022-10-06T16:20:05.797Z,16.20
2022-10-06T16:22:32.453Z,16.31
2022-10-06T16:24:59.010Z,16.39
2022-10-06T16:27:28.008Z,16.24
2022-10-06T16:29:56.676Z,16.09
2022-10-06T16:32:23.281Z,15.76
2022-10-06T16:34:49.860Z,16.00
2022-10-06T16:37:16.476Z,15.91
2022-10-06T16:39:43.046Z,15.97
2022-10-06T16:42:09.641Z,16.00
2022-10-06T16:44:36.231Z,15.92
2022-10-06T16:47:02.898Z,15.79
2022-10-06T16:49:29.587Z,15.73
2022-10-06T16:51:56.159Z,15.19
2022-10-06T16:54:22.915Z,15.01
2022-10-06T16:56:50.113Z,14.89
2022-10-06T16:59:21.534Z,14.82
2022-10-06T17:01:49.320Z,15.06
2022-10-06T17:04:25.663Z,15.13
2022-10-06T17:06:56.807Z,15.26
2022-10-06T17:09:25.522Z,15.32
2022-10-06T17:11:57.580Z,15.24
2022-10-06T17:14:25.173Z,15.26
2022-10-06T17:16:53.610Z,15.38
2022-10-06T17:19:22.736Z,15.30
2022-10-06T17:21:54.059Z,15.47
2022-10-06T17:24:24.590Z,15.24
2022-10-06T17:26:51.187Z,15.10
2022-10-06T17:29:21.819Z,15.18
2022-10-06T17:31:51.322Z,15.14
2022-10-06T17:34:21.530Z,15.17
2022-10-06T17:36:51.822Z,15.28
2022-10-06T17:39:23.081Z,15.18
2022-10-06T17:41:51.665Z,15.18
2022-10-06T17:44:20.671Z,15.13
2022-10-06T17:46:47.264Z,15.25
2022-10-06T17:49:16.030Z,15.08
2022-10-06T17:51:44.702Z,14.93
2022-10-06T17:54:13.213Z,15.01
2022-10-06T17:56:39.920Z,15.12
2022-10-06T17:59:11.701Z,14.95
2022-10-06T18:01:38.374Z,15.00
2022-10-06T18:04:06.557Z,14.99
2022-10-06T18:06:35.372Z,14.87
2022-10-06T18:09:03.267Z,14.76
2022-10-06T18:11:30.774Z,14.78
2022-10-06T18:13:58.223Z,14.76
2022-10-06T18:16:27.292Z,14.76
2022-10-06T18:18:55.417Z,14.79
2022-10-06T18:21:24.270Z,14.74
2022-10-06T18:23:50.965Z,14.71
2022-10-06T18:26:19.515Z,14.64
2022-10-06T18:29:16.795Z,14.59
2022-10-06T18:31:44.151Z,14.60
2022-10-06T18:36:58.830Z,14.57
2022-10-06T18:39:25.428Z,14.56
2022-10-06T18:41:52.495Z,14.59
2022-10-06T18:44:19.147Z,14.45
2022-10-06T18:46:45.729Z,14.01
2022-10-06T18:49:15.003Z,14.25
2022-10-06T18:51:45.642Z,14.32
2022-10-06T18:54:23.581Z,14.18
2022-10-06T18:56:50.511Z,14.22
2022-10-06T18:59:20.906Z,14.20
2022-10-06T19:01:48.730Z,14.12
2022-10-06T19:04:18.059Z,14.22
2022-10-06T19:06:47.480Z,14.31
2022-10-06T19:09:15.480Z,14.28
2022-10-06T19:11:42.116Z,14.29
2022-10-06T19:14:09.068Z,14.37
2022-10-06T19:16:36.423Z,14.61
2022-10-06T19:19:05.272Z,14.73
2022-10-06T19:21:31.872Z,14.52
2022-10-06T19:23:58.473Z,14.39
2022-10-06T19:26:25.112Z,14.21
2022-10-06T19:28:51.668Z,14.16
2022-10-06T19:31:18.241Z,13.96
2022-10-06T19:33:44.822Z,14.09
2022-10-06T19:36:11.394Z,14.01
2022-10-06T19:38:38.348Z,13.92
2022-10-06T19:41:05.190Z,13.99
2022-10-06T19:43:31.876Z,13.95
2022-10-06T19:45:59.662Z,13.95
2022-10-06T19:48:26.242Z,13.92
2022-10-06T19:50:52.826Z,13.95
2022-10-06T19:53:19.423Z,14.01
2022-10-06T19:55:46.071Z,13.91
2022-10-06T19:58:12.665Z,13.87
2022-10-06T20:00:39.294Z,13.82
2022-10-06T20:03:05.969Z,13.75
2022-10-06T20:05:35.151Z,13.65
2022-10-06T20:08:01.774Z,13.64
2022-10-06T20:10:28.347Z,13.66
2022-10-06T20:12:54.951Z,13.72
2022-10-06T20:15:21.569Z,13.59
2022-10-06T20:17:48.304Z,13.76
2022-10-06T20:20:14.936Z,13.73
2022-10-06T20:22:41.500Z,13.63
2022-10-06T20:25:08.253Z,13.76
2022-10-06T20:27:34.874Z,13.97
2022-10-06T20:30:01.515Z,13.83
2022-10-06T20:32:28.111Z,13.69
2022-10-06T20:34:54.667Z,13.60
2022-10-06T20:37:21.241Z,13.49
2022-10-06T20:39:47.831Z,13.50
2022-10-06T20:42:15.475Z,13.54
2022-10-06T20:44:43.673Z,13.45
2022-10-06T20:47:11.865Z,13.45
2022-10-06T20:49:38.540Z,13.49
2022-10-06T20:52:05.959Z,13.41
2022-10-06T20:54:32.865Z,13.33
2022-10-06T20:56:59.435Z,13.44
2022-10-06T20:59:26.023Z,13.34
2022-10-06T21:01:52.707Z,13.34
2022-10-06T21:04:20.490Z,13.26
2022-10-06T21:06:47.861Z,13.09
2022-10-06T21:09:16.514Z,13.04
2022-10-06T21:11:44.008Z,13.05
2022-10-06T21:14:11.559Z,13.05
2022-10-06T21:16:41.525Z,13.01
2022-10-06T21:19:13.975Z,12.98
2022-10-06T21:21:42.170Z,13.10
2022-10-06T21:24:09.199Z,13.00
2022-10-06T21:26:36.912Z,12.87
2022-10-06T21:29:03.521Z,12.87
2022-10-06T21:31:30.182Z,12.66
2022-10-06T21:33:56.824Z,12.54
2022-10-06T21:36:26.000Z,12.66
2022-10-06T21:38:55.139Z,12.75
2022-10-06T21:41:26.814Z,12.81
2022-10-06T21:44:10.837Z,12.82
2022-10-06T21:46:49.071Z,12.85
2022-10-06T21:49:21.490Z,12.82
2022-10-06T21:51:50.628Z,12.90
2022-10-06T21:54:18.453Z,12.79
2022-10-06T21:56:45.577Z,12.74
2022-10-06T21:59:12.602Z,12.74
2022-10-06T22:01:41.829Z,12.71
2022-10-06T22:04:09.166Z,12.79
2022-10-06T22:06:36.906Z,12.84
2022-10-06T22:09:06.226Z,12.81
2022-10-06T22:11:39.055Z,12.83
2022-10-06T22:14:10.482Z,12.80
2022-10-06T22:16:38.269Z,12.79
2022-10-06T22:19:07.323Z,12.75
2022-10-06T22:21:42.620Z,12.61
2022-10-06T22:24:12.692Z,12.48
2022-10-06T22:26:41.045Z,12.46
2022-10-06T22:29:10.553Z,12.54
2022-10-06T22:31:39.355Z,12.17
2022-10-06T22:34:06.541Z,12.35
2022-10-06T22:36:33.777Z,12.36
2022-10-06T22:39:01.052Z,12.37
2022-10-06T22:41:28.256Z,12.43
2022-10-06T22:43:56.657Z,12.49
2022-10-06T22:46:28.510Z,12.55
2022-10-06T22:48:55.366Z,12.50
2022-10-06T22:51:22.237Z,12.42
2022-10-06T22:53:57.580Z,12.40
2022-10-06T22:56:26.117Z,12.32
2022-10-06T22:58:52.704Z,12.18
2022-10-06T23:01:19.689Z,12.12
2022-10-06T23:03:47.298Z,12.20
2022-10-06T23:06:16.309Z,12.31
2022-10-06T23:08:43.282Z,12.27
2022-10-06T23:11:15.681Z,12.23
2022-10-06T23:13:42.376Z,12.20
2022-10-06T23:16:11.795Z,11.93
2022-10-06T23:18:39.961Z,12.00
2022-10-06T23:21:11.106Z,12.00
2022-10-06T23:23:37.668Z,12.00
2022-10-06T23:26:10.027Z,11.98
2022-10-06T23:28:37.703Z,11.89
2022-10-06T23:31:06.371Z,11.90
2022-10-06T23:33:33.138Z,11.99
2022-10-06T23:36:02.049Z,12.04
2022-10-06T23:38:28.893Z,11.93
2022-10-06T23:40:56.101Z,11.92
2022-10-06T23:43:23.316Z,11.82
2022-10-06T23:45:50.292Z,11.93
2022-10-06T23:48:17.697Z,11.84
2022-10-06T23:51:05.556Z,11.82
2022-10-06T23:53:32.354Z,11.83
2022-10-06T23:55:59.053Z,11.69
2022-10-06T23:58:26.359Z,11.89
